createdAt,value
2017-11-04T00:01:03.693Z,65.20
2017-11-04T00:03:30.927Z,69.33
2017-11-04T00:05:57.422Z,65.07
2017-11-04T00:08:23.868Z,65.87
2017-11-04T00:10:50.278Z,65.50
2017-11-04T00:13:16.762Z,63.83
2017-11-04T00:15:43.157Z,63.80
2017-11-04T00:18:09.687Z,61.30
2017-11-04T00:20:36.080Z,63.50
2017-11-04T00:23:02.543Z,63.60
2017-11-04T00:25:29.041Z,63.17
2017-11-04T00:27:55.447Z,60.90
2017-11-04T00:30:22.692Z,60.80
2017-11-04T00:32:49.144Z,61.97
2017-11-04T00:35:15.608Z,65.03
2017-11-04T00:37:42.099Z,63.43
2017-11-04T00:40:08.608Z,62.20
2017-11-04T00:42:35.098Z,63.00
2017-11-04T00:45:01.493Z,60.30
2017-11-04T00:47:27.965Z,62.50
2017-11-04T00:49:54.379Z,59.33
2017-11-04T00:52:20.792Z,61.43
2017-11-04T00:54:47.368Z,57.63
2017-11-04T00:57:13.836Z,58.73
2017-11-04T00:59:40.312Z,59.57
2017-11-04T01:02:06.709Z,57.97
2017-11-04T01:04:33.185Z,59.30
2017-11-04T01:06:59.662Z,58.90
2017-11-04T01:09:26.209Z,59.67
2017-11-04T01:11:52.718Z,54.70
2017-11-04T01:14:19.273Z,57.33
2017-11-04T01:16:46.478Z,58.10
2017-11-04T01:19:13.007Z,56.20
2017-11-04T01:21:39.553Z,55.97
2017-11-04T01:24:06.072Z,55.30
2017-11-04T01:26:32.528Z,57.50
2017-11-04T01:28:59.053Z,58.13
2017-11-04T01:31:26.285Z,60.83
2017-11-04T01:33:52.801Z,59.10
2017-11-04T01:36:19.309Z,61.23
2017-11-04T01:38:45.777Z,59.37
2017-11-04T01:41:12.231Z,61.60
2017-11-04T01:43:38.681Z,60.60
2017-11-04T01:46:05.303Z,61.50
2017-11-04T01:48:31.766Z,62.53
2017-11-04T01:50:58.269Z,62.23
2017-11-04T01:53:24.748Z,65.13
2017-11-04T01:55:51.216Z,62.30
2017-11-04T01:58:17.679Z,59.37
2017-11-04T02:00:44.131Z,58.63
2017-11-04T02:03:10.684Z,57.70
2017-11-04T02:05:37.150Z,59.07
2017-11-04T02:08:03.680Z,60.77
2017-11-04T02:10:30.156Z,57.57
2017-11-04T02:12:56.695Z,59.47
2017-11-04T02:15:23.153Z,60.90
2017-11-04T02:17:49.698Z,58.57
2017-11-04T02:20:16.183Z,60.77
2017-11-04T02:22:42.731Z,55.77
2017-11-04T02:25:09.250Z,55.80
2017-11-04T02:27:35.760Z,58.33
2017-11-04T02:30:02.283Z,55.77
2017-11-04T02:32:28.745Z,56.83
2017-11-04T02:34:55.263Z,55.77
2017-11-04T02:37:22.495Z,54.47
2017-11-04T02:39:49.018Z,57.47
2017-11-04T02:42:15.556Z,57.50
2017-11-04T02:44:42.080Z,57.43
2017-11-04T02:47:08.586Z,55.27
2017-11-04T02:49:35.089Z,57.43
2017-11-04T02:52:01.598Z,56.33
2017-11-04T02:54:28.101Z,56.40
2017-11-04T02:56:54.546Z,60.60
2017-11-04T02:59:21.111Z,63.20
2017-11-04T03:01:47.581Z,58.03
2017-11-04T03:04:14.088Z,57.97
2017-11-04T03:06:40.557Z,58.70
2017-11-04T03:09:07.100Z,59.87
2017-11-04T03:11:34.331Z,58.77
2017-11-04T03:14:00.865Z,60.03
2017-11-04T03:16:27.314Z,58.93
2017-11-04T03:18:53.822Z,57.53
2017-11-04T03:21:20.377Z,59.30
2017-11-04T03:23:46.879Z,55.47
2017-11-04T03:26:13.395Z,56.97
2017-11-04T03:28:39.915Z,59.43
2017-11-04T03:31:06.378Z,58.40
2017-11-04T03:33:32.825Z,59.73
2017-11-04T03:35:59.347Z,57.10
2017-11-04T03:38:25.857Z,56.20
2017-11-04T03:40:53.129Z,57.00
2017-11-04T03:43:19.604Z,57.53
2017-11-04T03:45:46.153Z,57.33
2017-11-04T03:48:12.676Z,58.87
2017-11-04T03:50:39.206Z,56.23
2017-11-04T03:53:05.712Z,55.77
2017-11-04T03:55:32.230Z,54.90
2017-11-04T03:57:59.518Z,54.00
2017-11-04T04:00:26.039Z,53.40
2017-11-04T04:02:53.371Z,54.73
2017-11-04T04:05:19.862Z,58.67
2017-11-04T04:07:46.336Z,62.87
2017-11-04T04:10:12.880Z,62.10
2017-11-04T04:12:39.401Z,66.50
2017-11-04T04:15:05.920Z,61.07
2017-11-04T04:17:32.420Z,62.77
2017-11-04T04:19:58.916Z,63.93
2017-11-04T04:22:25.436Z,63.83
2017-11-04T04:24:51.893Z,65.17
2017-11-04T04:27:18.461Z,64.47
2017-11-04T04:29:45.738Z,65.00
2017-11-04T04:32:12.249Z,66.20
2017-11-04T04:34:39.469Z,64.80
2017-11-04T04:37:05.987Z,67.93
2017-11-04T04:39:32.548Z,63.87
2017-11-04T04:41:59.066Z,64.40
2017-11-04T04:44:25.583Z,63.20
2017-11-04T04:46:52.125Z,63.17
2017-11-04T04:49:18.625Z,66.87
2017-11-04T04:51:45.157Z,66.77
2017-11-04T04:54:11.666Z,66.67
2017-11-04T04:56:38.177Z,68.20
2017-11-04T04:59:04.617Z,71.20
2017-11-04T05:01:31.051Z,69.40
2017-11-04T05:03:57.650Z,71.33
2017-11-04T05:06:24.096Z,71.53
2017-11-04T05:08:50.559Z,65.77
2017-11-04T05:11:17.105Z,71.50
2017-11-04T05:13:43.629Z,69.57
2017-11-04T05:16:10.131Z,70.10
2017-11-04T05:18:37.452Z,69.27
2017-11-04T05:21:03.969Z,70.30
2017-11-04T05:23:30.481Z,73.47
2017-11-04T05:25:56.998Z,70.70
2017-11-04T05:28:23.470Z,69.17
2017-11-04T05:30:49.995Z,71.57
2017-11-04T05:33:16.492Z,74.80
2017-11-04T05:35:42.966Z,70.10
2017-11-04T05:49:21.260Z,71.37
2017-11-04T05:51:47.800Z,65.93
2017-11-04T05:54:14.424Z,67.80
2017-11-04T05:56:40.911Z,68.37
2017-11-04T05:59:07.385Z,66.87
2017-11-04T06:01:33.919Z,65.17
2017-11-04T06:04:00.472Z,63.67
2017-11-04T06:06:26.932Z,65.40
2017-11-04T06:08:53.477Z,73.65
2017-11-04T06:11:19.934Z,66.43
2017-11-04T06:13:46.544Z,66.37
2017-11-04T06:16:13.061Z,65.03
2017-11-04T06:18:40.284Z,65.53
2017-11-04T06:21:06.784Z,62.57
2017-11-04T06:23:33.232Z,63.77
2017-11-04T06:25:59.740Z,63.97
2017-11-04T06:28:26.255Z,65.80
2017-11-04T06:30:52.771Z,68.90
2017-11-04T06:33:19.242Z,72.23
2017-11-04T06:35:45.793Z,75.33
2017-11-04T06:40:02.981Z,81.90
2017-11-04T06:42:30.751Z,85.07
2017-11-04T06:44:58.523Z,85.20
2017-11-04T06:47:26.344Z,83.83
2017-11-04T06:49:54.113Z,87.20
2017-11-04T06:52:21.931Z,85.63
2017-11-04T06:54:49.667Z,83.37
2017-11-04T06:57:17.445Z,79.23
2017-11-04T06:59:45.220Z,81.67
2017-11-04T07:02:12.985Z,79.43
2017-11-04T07:04:40.736Z,81.27
2017-11-04T07:07:08.573Z,78.70
2017-11-04T07:09:36.324Z,74.23
2017-11-04T07:12:04.845Z,74.50
2017-11-04T07:14:32.644Z,75.07
2017-11-04T07:17:00.423Z,78.50
2017-11-04T07:19:28.181Z,77.97
2017-11-04T07:21:55.994Z,78.00
2017-11-04T07:24:23.735Z,79.10
2017-11-04T07:26:51.634Z,77.57
2017-11-04T07:29:19.393Z,77.67
2017-11-04T07:31:47.195Z,80.37
2017-11-04T07:34:15.042Z,78.27
2017-11-04T07:36:42.825Z,72.77
2017-11-04T07:39:10.631Z,75.13
2017-11-04T07:41:38.532Z,71.27
2017-11-04T07:44:06.327Z,73.80
2017-11-04T07:46:34.053Z,72.50
2017-11-04T07:49:02.623Z,71.67
2017-11-04T07:51:30.441Z,68.57
2017-11-04T07:53:58.208Z,70.50
2017-11-04T07:56:26.026Z,74.37
2017-11-04T07:58:54.520Z,71.53
2017-11-04T08:01:22.407Z,71.40
2017-11-04T08:03:50.211Z,72.80
2017-11-04T08:06:18.021Z,71.57
2017-11-04T08:08:46.507Z,75.13
2017-11-04T08:11:15.052Z,69.90
2017-11-04T08:13:42.780Z,71.20
2017-11-04T08:16:10.519Z,70.00
2017-11-04T08:18:38.324Z,71.23
2017-11-04T08:21:06.064Z,68.73
2017-11-04T08:23:33.929Z,73.90
2017-11-04T08:26:02.506Z,72.57
2017-11-04T08:28:30.312Z,71.27
2017-11-04T08:30:58.066Z,71.67
2017-11-04T08:33:25.875Z,71.53
2017-11-04T08:35:53.705Z,76.57
2017-11-04T08:38:21.475Z,75.07
2017-11-04T08:40:49.256Z,73.70
2017-11-04T08:43:17.169Z,73.97
2017-11-04T08:45:44.940Z,75.67
2017-11-04T08:48:12.706Z,75.10
2017-11-04T08:50:40.534Z,72.53
2017-11-04T08:53:08.395Z,76.00
2017-11-04T08:55:37.205Z,79.63
2017-11-04T08:58:08.232Z,75.87
2017-11-04T09:00:36.061Z,80.80
2017-11-04T09:03:05.792Z,82.27
2017-11-04T09:05:33.588Z,76.33
2017-11-04T09:08:01.448Z,78.97
2017-11-04T09:10:29.460Z,76.70
2017-11-04T09:12:57.330Z,81.20
2017-11-04T09:15:25.098Z,81.50
2017-11-04T09:17:52.954Z,81.30
2017-11-04T09:20:20.717Z,82.03
2017-11-04T09:22:48.568Z,83.60
2017-11-04T09:25:16.308Z,83.03
2017-11-04T09:27:44.055Z,82.80
2017-11-04T09:30:11.790Z,86.17
2017-11-04T09:32:39.640Z,79.70
2017-11-04T09:35:07.378Z,85.73
2017-11-04T09:37:35.182Z,84.80
2017-11-04T09:40:02.957Z,85.97
2017-11-04T09:42:30.786Z,83.30
2017-11-04T09:44:58.603Z,82.83
2017-11-04T09:47:26.438Z,81.27
2017-11-04T09:49:54.234Z,83.10
2017-11-04T09:52:22.028Z,81.37
2017-11-04T09:54:49.811Z,85.30
2017-11-04T09:57:17.564Z,82.77
2017-11-04T09:59:45.316Z,82.90
2017-11-04T10:02:14.921Z,83.33
2017-11-04T10:04:42.661Z,82.03
2017-11-04T10:07:10.458Z,84.93
2017-11-04T10:09:38.283Z,79.67
2017-11-04T10:12:06.031Z,85.47
2017-11-04T10:14:33.905Z,87.80
2017-11-04T10:17:02.485Z,84.17
2017-11-04T10:19:30.450Z,82.20
2017-11-04T10:21:58.304Z,84.37
2017-11-04T10:24:26.104Z,78.93
2017-11-04T10:26:53.992Z,83.80
2017-11-04T10:29:21.788Z,85.27
2017-11-04T10:31:49.594Z,85.47
2017-11-04T10:34:17.383Z,80.10
2017-11-04T10:36:45.182Z,79.50
2017-11-04T10:39:12.940Z,85.67
2017-11-04T10:41:41.576Z,84.70
2017-11-04T10:44:09.405Z,82.17
2017-11-04T10:46:37.297Z,81.60
2017-11-04T10:49:06.027Z,81.93
2017-11-04T10:51:35.214Z,78.87
2017-11-04T10:54:07.025Z,83.23
2017-11-04T10:56:34.937Z,79.00
2017-11-04T10:59:03.385Z,78.63
2017-11-04T11:01:35.010Z,80.23
2017-11-04T11:04:02.846Z,81.57
2017-11-04T11:06:30.811Z,76.27
2017-11-04T11:08:58.707Z,78.63
2017-11-04T11:11:26.650Z,77.30
2017-11-04T11:14:01.123Z,80.20
2017-11-04T11:16:33.567Z,76.20
2017-11-04T11:19:02.088Z,78.30
2017-11-04T11:21:33.374Z,75.00
2017-11-04T11:24:04.058Z,71.57
2017-11-04T11:40:44.667Z,77.73
2017-11-04T11:43:12.531Z,74.13
2017-11-04T11:46:28.719Z,79.40
2017-11-04T11:48:58.599Z,74.33
2017-11-04T11:54:57.850Z,77.47
2017-11-04T12:18:23.655Z,82.43
2017-11-04T12:20:51.624Z,80.03
2017-11-04T12:23:22.501Z,77.30
2017-11-04T12:25:50.345Z,79.20
2017-11-04T12:28:19.118Z,84.53
2017-11-04T12:30:47.176Z,82.80
2017-11-04T12:33:16.279Z,76.97
2017-11-04T12:35:44.356Z,77.80
2017-11-04T12:38:12.916Z,78.17
2017-11-04T12:40:40.853Z,76.50
2017-11-04T12:43:09.555Z,84.93
2017-11-04T12:45:37.442Z,75.63
2017-11-04T12:48:05.296Z,70.53
2017-11-04T12:50:37.854Z,70.57
2017-11-04T12:53:05.617Z,62.73
2017-11-04T12:55:33.343Z,71.93
2017-11-04T12:58:01.300Z,70.10
2017-11-04T13:00:29.141Z,67.53
2017-11-04T13:02:56.947Z,76.20
2017-11-04T13:05:24.709Z,76.07
2017-11-04T13:07:52.663Z,79.83
2017-11-04T13:10:20.415Z,73.93
2017-11-04T13:12:48.254Z,71.80
2017-11-04T13:15:16.071Z,70.00
2017-11-04T13:17:43.931Z,65.73
2017-11-04T13:20:11.800Z,66.50
2017-11-04T13:22:39.838Z,67.07
2017-11-04T13:25:08.512Z,68.97
2017-11-04T13:27:36.366Z,68.80
2017-11-04T13:30:04.243Z,67.50
2017-11-04T13:32:31.998Z,59.93
2017-11-04T13:34:59.896Z,60.20
2017-11-04T13:37:27.704Z,66.17
2017-11-04T13:39:55.547Z,63.30
2017-11-04T13:42:24.139Z,69.10
2017-11-04T13:44:52.666Z,63.67
2017-11-04T13:47:21.067Z,65.93
2017-11-04T13:49:49.581Z,67.43
2017-11-04T13:52:17.409Z,71.67
2017-11-04T13:54:45.196Z,69.57
2017-11-04T13:57:13.162Z,69.93
2017-11-04T13:59:41.649Z,68.20
2017-11-04T14:02:09.568Z,69.23
2017-11-04T14:04:37.387Z,66.10
2017-11-04T14:07:05.324Z,69.03
2017-11-04T14:09:33.182Z,73.73
2017-11-04T14:12:01.931Z,67.60
2017-11-04T14:14:30.058Z,70.83
2017-11-04T14:16:57.983Z,71.80
2017-11-04T14:19:29.880Z,71.17
2017-11-04T14:21:58.069Z,70.70
2017-11-04T14:24:25.932Z,68.47
2017-11-04T14:26:53.796Z,69.97
2017-11-04T14:29:22.054Z,69.40
2017-11-04T14:31:49.888Z,71.63
2017-11-04T14:34:17.628Z,71.90
2017-11-04T14:36:50.139Z,73.10
2017-11-04T14:39:18.062Z,69.70
2017-11-04T14:41:47.996Z,73.23
2017-11-04T14:44:15.850Z,75.00
2017-11-04T14:46:43.654Z,72.27
2017-11-04T14:49:13.201Z,74.17
2017-11-04T14:51:41.153Z,71.57
2017-11-04T14:54:09.994Z,71.07
2017-11-04T14:56:37.837Z,72.93
2017-11-04T14:59:05.750Z,71.07
2017-11-04T15:01:33.712Z,69.80
2017-11-04T15:04:02.336Z,68.13
2017-11-04T15:06:30.094Z,67.03
2017-11-04T15:08:57.945Z,70.20
2017-11-04T15:11:26.927Z,70.10
2017-11-04T15:13:55.879Z,67.40
2017-11-04T15:16:24.700Z,67.53
2017-11-04T15:18:52.461Z,67.40
2017-11-04T15:21:20.215Z,72.27
2017-11-04T15:23:48.719Z,67.37
2017-11-04T15:26:16.573Z,68.40
2017-11-04T15:28:44.465Z,73.07
2017-11-04T15:31:12.410Z,71.50
2017-11-04T15:33:40.255Z,66.00
2017-11-04T15:36:12.612Z,69.43
2017-11-04T15:38:43.500Z,66.57
2017-11-04T15:41:14.449Z,68.10
2017-11-04T15:43:42.360Z,70.03
2017-11-04T15:46:10.188Z,71.27
2017-11-04T15:48:41.486Z,67.80
2017-11-04T15:51:10.039Z,67.70
2017-11-04T15:53:37.834Z,66.33
2017-11-04T15:56:05.672Z,68.13
2017-11-04T15:58:33.686Z,70.37
2017-11-04T16:01:01.563Z,68.60
2017-11-04T16:03:29.505Z,70.30
2017-11-04T16:05:57.367Z,70.37
2017-11-04T16:08:25.207Z,71.97
2017-11-04T16:10:53.861Z,76.03
2017-11-04T16:13:21.779Z,75.13
2017-11-04T16:16:01.423Z,123.07
2017-11-04T16:18:29.210Z,77.00
2017-11-04T16:20:57.590Z,72.13
2017-11-04T16:23:26.243Z,74.57
2017-11-04T16:25:54.026Z,71.70
2017-11-04T16:28:21.843Z,73.00
2017-11-04T16:30:50.404Z,71.70
2017-11-04T16:33:18.155Z,73.03
2017-11-04T16:35:47.119Z,74.50
2017-11-04T16:38:15.047Z,77.77
2017-11-04T16:40:43.405Z,75.77
2017-11-04T16:43:11.226Z,73.70
2017-11-04T16:45:39.110Z,72.90
2017-11-04T16:48:06.885Z,79.20
2017-11-04T16:50:34.732Z,86.07
2017-11-04T16:53:03.965Z,75.47
2017-11-04T16:55:41.148Z,79.40
2017-11-04T16:58:09.025Z,80.57
2017-11-04T17:00:38.297Z,85.67
2017-11-04T17:03:25.424Z,90.00
2017-11-04T17:05:54.510Z,81.63
2017-11-04T17:08:22.298Z,84.47
2017-11-04T17:10:50.103Z,89.17
2017-11-04T17:13:17.907Z,85.90
2017-11-04T17:15:47.822Z,85.67
2017-11-04T17:18:16.413Z,90.60
2017-11-04T17:20:44.246Z,85.73
2017-11-04T17:23:12.030Z,82.27
2017-11-04T17:25:40.640Z,85.60
2017-11-04T17:28:08.503Z,88.40
2017-11-04T17:30:36.394Z,84.13
2017-11-04T17:33:05.600Z,90.20
2017-11-04T17:35:46.967Z,86.90
2017-11-04T17:41:51.882Z,90.47
2017-11-04T17:44:19.794Z,86.23
2017-11-04T17:46:48.181Z,86.10
2017-11-04T17:49:15.919Z,88.23
2017-11-04T17:51:44.043Z,89.50
2017-11-04T17:54:11.943Z,88.33
2017-11-04T17:56:39.797Z,94.25
2017-11-04T17:59:08.054Z,89.40
2017-11-04T18:01:35.999Z,83.63
2017-11-04T18:04:03.835Z,86.33
2017-11-04T18:28:06.955Z,84.23
2017-11-04T18:30:54.193Z,89.57
2017-11-04T18:33:22.897Z,94.93
2017-11-04T18:35:53.331Z,91.40
2017-11-04T18:38:27.824Z,88.47
2017-11-04T18:40:57.992Z,86.77
2017-11-04T18:43:26.594Z,88.53
2017-11-04T18:50:01.230Z,86.20
2017-11-04T18:55:51.562Z,88.20
2017-11-04T18:58:28.311Z,90.93
2017-11-04T19:00:57.535Z,91.50
2017-11-04T19:03:26.921Z,89.57
2017-11-04T19:05:57.707Z,91.90
2017-11-04T19:08:26.710Z,88.17
2017-11-04T19:10:54.541Z,89.70
2017-11-04T19:13:22.388Z,91.40
2017-11-04T19:15:50.241Z,91.50
2017-11-04T19:18:17.999Z,93.87
2017-11-04T19:20:45.905Z,94.03
2017-11-04T19:23:13.646Z,91.63
2017-11-04T19:25:41.363Z,93.87
2017-11-04T19:28:15.151Z,89.93
2017-11-04T19:30:45.819Z,94.00
2017-11-04T19:33:30.465Z,92.53
2017-11-04T19:35:59.096Z,92.20
2017-11-04T19:38:27.075Z,90.77
2017-11-04T19:40:54.860Z,90.97
2017-11-04T19:43:22.632Z,91.83
2017-11-04T19:45:51.386Z,90.13
2017-11-04T19:48:19.215Z,91.50
2017-11-04T19:50:47.730Z,90.87
2017-11-04T19:53:35.287Z,92.90
2017-11-04T19:56:03.241Z,97.63
2017-11-04T19:58:31.339Z,90.27
2017-11-04T20:00:59.619Z,87.53
2017-11-04T20:03:28.733Z,90.43
2017-11-04T20:05:56.547Z,94.90
2017-11-04T20:08:24.956Z,89.30
2017-11-04T20:10:53.430Z,90.23
2017-11-04T20:13:22.742Z,98.27
2017-11-04T20:15:50.936Z,97.83
2017-11-04T20:18:20.393Z,96.33
2017-11-04T20:20:49.905Z,98.80
2017-11-04T20:23:17.800Z,91.13
2017-11-04T20:25:45.632Z,95.53
2017-11-04T20:28:13.499Z,91.77
2017-11-04T20:30:41.487Z,91.33
2017-11-04T20:33:10.187Z,94.00
2017-11-04T20:35:38.010Z,93.37
2017-11-04T20:38:06.520Z,97.47
2017-11-04T20:40:34.388Z,92.03
2017-11-04T20:43:02.130Z,97.00
2017-11-04T20:45:30.764Z,98.57
2017-11-04T20:47:58.518Z,94.43
2017-11-04T20:50:26.302Z,96.17
2017-11-04T20:52:55.752Z,94.37
2017-11-04T20:55:23.636Z,97.97
2017-11-04T20:57:51.456Z,94.80
2017-11-04T21:00:20.561Z,93.87
2017-11-04T21:02:48.372Z,99.00
2017-11-04T21:05:16.215Z,93.80
2017-11-04T21:07:44.042Z,94.97
2017-11-04T21:10:11.872Z,95.23
2017-11-04T21:12:39.721Z,96.20
2017-11-04T21:15:07.453Z,94.47
2017-11-04T21:17:35.294Z,95.27
2017-11-04T21:20:21.157Z,93.87
2017-11-04T21:22:49.014Z,94.90
2017-11-04T21:25:18.235Z,93.23
2017-11-04T21:27:46.488Z,99.97
2017-11-04T21:30:14.457Z,91.67
2017-11-04T21:32:42.229Z,95.70
2017-11-04T21:35:10.036Z,99.00
2017-11-04T21:37:37.894Z,93.90
2017-11-04T21:40:05.786Z,96.50
2017-11-04T21:42:33.546Z,93.80
2017-11-04T21:45:01.444Z,96.43
2017-11-04T21:47:29.528Z,91.60
2017-11-04T21:49:57.333Z,89.50
2017-11-04T21:52:25.184Z,93.27
2017-11-04T21:54:52.954Z,94.20
2017-11-04T21:57:20.736Z,90.67
2017-11-04T21:59:49.389Z,95.00
2017-11-04T22:02:17.204Z,94.97
2017-11-04T22:05:28.466Z,94.30
2017-11-04T22:07:56.379Z,91.70
2017-11-04T22:10:24.308Z,89.10
2017-11-04T22:12:52.123Z,84.23
2017-11-04T22:15:19.993Z,89.23
2017-11-04T22:17:47.923Z,89.37
2017-11-04T22:20:15.718Z,84.90
2017-11-04T22:22:43.629Z,87.80
2017-11-04T22:25:11.524Z,87.33
2017-11-04T22:27:39.429Z,87.83
2017-11-04T22:30:07.286Z,84.43
2017-11-04T22:32:35.269Z,90.90
2017-11-04T22:35:03.232Z,84.90
2017-11-04T22:37:31.122Z,87.50
2017-11-04T22:39:59.022Z,87.60
2017-11-04T22:42:27.678Z,86.83
2017-11-04T22:44:55.554Z,84.80
2017-11-04T22:47:23.406Z,83.40
2017-11-04T22:49:51.200Z,85.57
2017-11-04T22:52:19.143Z,90.10
2017-11-04T22:54:46.926Z,86.80
2017-11-04T22:57:14.713Z,83.27
2017-11-04T22:59:42.623Z,88.07
2017-11-04T23:02:10.491Z,83.90
2017-11-04T23:04:38.369Z,88.13
2017-11-04T23:07:07.050Z,85.57
2017-11-04T23:09:36.347Z,85.60
2017-11-04T23:12:04.281Z,85.70
2017-11-04T23:14:32.124Z,82.33
2017-11-04T23:17:00.001Z,85.00
2017-11-04T23:19:27.804Z,85.10
2017-11-04T23:21:55.810Z,87.47
2017-11-04T23:24:25.332Z,84.63
2017-11-04T23:26:53.141Z,84.40
2017-11-04T23:29:21.011Z,80.53
2017-11-04T23:31:49.022Z,83.70
2017-11-04T23:34:17.622Z,82.13
2017-11-04T23:36:49.411Z,77.43
2017-11-04T23:39:17.215Z,90.00
2017-11-04T23:41:45.005Z,87.47
2017-11-04T23:44:13.554Z,86.10
2017-11-04T23:46:41.417Z,81.73
2017-11-04T23:49:09.354Z,83.70
2017-11-04T23:51:37.249Z,80.33
2017-11-04T23:54:05.133Z,76.87
2017-11-04T23:56:32.989Z,78.67
2017-11-04T23:59:00.835Z,80.90
